createdAt,value
2023-03-08T00:01:42.250Z,4.90
2023-03-08T00:06:43.688Z,2.28
2023-03-08T00:11:45.068Z,3.58
2023-03-08T00:16:46.425Z,2.90
2023-03-08T00:21:47.842Z,2.08
2023-03-08T00:26:49.203Z,5.13
2023-03-08T00:31:50.724Z,2.55
2023-03-08T00:36:52.277Z,2.60
2023-03-08T00:41:53.693Z,3.05
2023-03-08T00:46:55.134Z,3.58
2023-03-08T00:51:56.548Z,3.63
2023-03-08T00:56:57.951Z,2.10
2023-03-08T01:02:00.711Z,2.40
2023-03-08T01:07:02.128Z,3.33
2023-03-08T01:12:03.775Z,2.47
2023-03-08T01:17:05.241Z,1.95
2023-03-08T01:22:06.605Z,4.47
2023-03-08T01:27:07.992Z,2.78
2023-03-08T01:32:10.327Z,3.42
2023-03-08T01:37:11.751Z,21.50
2023-03-08T01:42:13.144Z,22.10
2023-03-08T01:47:20.181Z,3.55
2023-03-08T01:52:36.740Z,2.27
2023-03-08T01:57:49.302Z,3.53
2023-03-08T02:02:52.995Z,4.90
2023-03-08T02:07:54.448Z,3.90
2023-03-08T02:12:55.828Z,3.53
2023-03-08T02:17:57.189Z,4.22
2023-03-08T02:23:18.954Z,4.15
2023-03-08T02:28:25.195Z,6.53
2023-03-08T02:33:26.659Z,3.92
2023-03-08T02:38:28.050Z,5.45
2023-03-08T02:43:29.454Z,5.45
2023-03-08T02:48:30.896Z,5.90
2023-03-08T02:53:32.218Z,5.50
2023-03-08T02:58:33.550Z,5.22
2023-03-08T03:03:34.892Z,5.53
2023-03-08T03:08:36.306Z,9.13
2023-03-08T03:13:37.982Z,6.90
2023-03-08T03:18:39.451Z,5.43
2023-03-08T03:23:41.353Z,8.00
2023-03-08T03:28:43.206Z,7.00
2023-03-08T03:33:44.915Z,7.70
2023-03-08T03:38:47.249Z,7.55
2023-03-08T03:43:49.480Z,6.50
2023-03-08T03:48:51.189Z,7.07
2023-03-08T03:53:52.591Z,7.20
2023-03-08T03:58:54.397Z,7.47
2023-03-08T04:03:57.000Z,9.30
2023-03-08T04:09:00.829Z,10.70
2023-03-08T04:14:03.036Z,10.35
2023-03-08T04:19:11.331Z,11.45
2023-03-08T04:24:12.674Z,9.65
2023-03-08T04:29:14.048Z,10.68
2023-03-08T04:34:15.365Z,12.18
2023-03-08T04:39:16.752Z,10.93
2023-03-08T04:44:18.069Z,15.05
2023-03-08T04:49:19.442Z,13.07
2023-03-08T04:54:20.791Z,14.88
2023-03-08T04:59:22.176Z,15.80
2023-03-08T05:04:23.617Z,14.32
2023-03-08T05:09:24.940Z,15.65
2023-03-08T05:14:26.369Z,12.68
2023-03-08T05:19:27.727Z,15.23
2023-03-08T05:24:29.089Z,16.73
2023-03-08T05:29:30.427Z,15.45
2023-03-08T05:34:31.792Z,23.30
2023-03-08T05:39:33.118Z,19.58
2023-03-08T05:44:35.935Z,13.98
2023-03-08T05:49:37.283Z,17.35
2023-03-08T05:54:39.529Z,18.60
2023-03-08T05:59:40.867Z,17.15
2023-03-08T06:04:42.223Z,22.08
2023-03-08T06:09:43.590Z,26.20
2023-03-08T06:14:44.931Z,19.02
2023-03-08T06:19:46.714Z,20.90
2023-03-08T06:24:50.774Z,19.50
2023-03-08T06:29:52.138Z,22.27
2023-03-08T06:34:53.461Z,23.52
2023-03-08T06:39:54.801Z,25.25
2023-03-08T06:44:56.160Z,24.50
2023-03-08T06:49:57.531Z,21.60
2023-03-08T06:54:58.845Z,25.58
2023-03-08T07:00:00.232Z,24.92
2023-03-08T07:05:01.683Z,21.73
2023-03-08T07:10:03.992Z,25.20
2023-03-08T07:15:14.735Z,23.02
2023-03-08T07:20:18.374Z,23.77
2023-03-08T07:25:21.189Z,23.98
2023-03-08T07:30:23.129Z,24.10
2023-03-08T07:35:24.544Z,18.08
2023-03-08T07:40:25.897Z,24.73
2023-03-08T07:45:27.264Z,19.45
2023-03-08T07:50:28.642Z,23.73
2023-03-08T07:55:30.157Z,24.27
2023-03-08T08:00:31.508Z,24.40
2023-03-08T08:05:35.491Z,22.48
2023-03-08T08:10:36.905Z,25.60
2023-03-08T08:15:38.311Z,19.83
2023-03-08T08:20:39.675Z,21.88
2023-03-08T08:25:41.023Z,23.70
2023-03-08T08:30:42.391Z,20.02
2023-03-08T08:35:43.808Z,23.05
2023-03-08T08:40:45.300Z,20.63
2023-03-08T08:45:49.104Z,25.45
2023-03-08T08:50:51.631Z,22.58
2023-03-08T08:55:53.037Z,17.95
2023-03-08T09:00:54.363Z,18.98
2023-03-08T09:05:57.987Z,25.65
2023-03-08T09:11:04.585Z,22.98
2023-03-08T09:16:06.403Z,19.48
2023-03-08T09:21:07.784Z,24.35
2023-03-08T09:26:09.257Z,24.20
2023-03-08T09:31:14.934Z,22.25
2023-03-08T09:36:16.662Z,22.85
2023-03-08T09:41:30.771Z,23.50
2023-03-08T09:46:46.205Z,24.95
2023-03-08T09:51:52.842Z,18.08
2023-03-08T09:56:56.198Z,22.10
2023-03-08T10:02:14.794Z,20.38
2023-03-08T10:07:45.452Z,22.38
2023-03-08T10:13:03.784Z,21.02
2023-03-08T10:18:24.772Z,22.55
2023-03-08T10:23:29.400Z,16.92
2023-03-08T10:28:30.742Z,20.08
2023-03-08T10:33:35.239Z,18.17
2023-03-08T10:38:37.284Z,23.50
2023-03-08T10:43:46.627Z,25.27
2023-03-08T10:48:48.351Z,22.13
2023-03-08T10:54:02.579Z,22.52
2023-03-08T10:59:06.229Z,23.60
2023-03-08T11:04:21.151Z,25.80
2023-03-08T11:09:31.264Z,25.15
2023-03-08T11:14:32.723Z,28.70
2023-03-08T11:19:49.130Z,27.38
2023-03-08T11:25:19.364Z,28.13
2023-03-08T11:31:05.236Z,26.25
2023-03-08T11:36:32.933Z,29.23
2023-03-08T11:41:51.536Z,27.98
2023-03-08T11:47:26.258Z,28.70
2023-03-08T11:52:44.718Z,29.70
2023-03-08T11:57:54.820Z,31.55
2023-03-08T12:03:03.204Z,27.77
2023-03-08T12:08:13.561Z,27.25
2023-03-08T12:13:22.690Z,21.58
2023-03-08T12:18:39.039Z,22.05
2023-03-08T12:24:05.330Z,21.95
2023-03-08T12:29:18.514Z,30.67
2023-03-08T12:34:38.184Z,29.20
2023-03-08T12:39:40.454Z,24.25
2023-03-08T12:44:42.825Z,28.17
2023-03-08T12:49:49.390Z,25.80
2023-03-08T12:55:19.250Z,27.75
2023-03-08T13:00:20.907Z,32.50
2023-03-08T13:05:33.209Z,31.95
2023-03-08T13:10:38.968Z,34.88
2023-03-08T13:15:40.428Z,34.72
2023-03-08T13:20:59.370Z,28.10
2023-03-08T13:26:06.545Z,26.08
2023-03-08T13:31:10.882Z,28.23
2023-03-08T13:36:32.712Z,29.55
2023-03-08T13:41:43.614Z,28.95
2023-03-08T13:46:46.354Z,23.02
2023-03-08T13:51:51.707Z,20.92
2023-03-08T13:56:54.289Z,22.23
2023-03-08T14:01:56.171Z,22.02
2023-03-08T14:06:59.951Z,24.27
2023-03-08T14:12:05.064Z,21.40
2023-03-08T14:17:06.704Z,23.02
2023-03-08T14:22:28.622Z,22.88
2023-03-08T14:27:40.926Z,19.67
2023-03-08T14:32:56.814Z,19.02
2023-03-08T14:37:58.862Z,20.35
2023-03-08T14:43:04.545Z,23.13
2023-03-08T14:48:18.227Z,21.48
2023-03-08T14:53:29.082Z,20.20
2023-03-08T14:58:32.672Z,19.70
2023-03-08T15:03:34.355Z,24.35
2023-03-08T15:08:36.190Z,21.75
2023-03-08T15:13:37.516Z,22.90
2023-03-08T15:18:38.951Z,27.23
2023-03-08T15:23:42.788Z,21.55
2023-03-08T15:28:44.147Z,23.33
2023-03-08T15:33:45.591Z,21.90
2023-03-08T15:38:47.003Z,23.25
2023-03-08T15:43:48.537Z,23.88
2023-03-08T15:48:51.104Z,28.38
2023-03-08T15:53:52.788Z,27.88
2023-03-08T15:58:55.220Z,29.92
2023-03-08T16:03:57.387Z,33.45
2023-03-08T16:08:59.068Z,32.38
2023-03-08T16:14:00.447Z,29.85
2023-03-08T16:19:02.568Z,30.95
2023-03-08T16:24:04.286Z,29.65
2023-03-08T16:29:05.695Z,33.42
2023-03-08T16:34:07.438Z,31.23
2023-03-08T16:39:09.226Z,33.78
2023-03-08T16:44:21.228Z,34.35
2023-03-08T16:49:28.031Z,32.55
2023-03-08T16:54:29.402Z,30.17
2023-03-08T16:59:31.189Z,33.95
2023-03-08T17:04:32.556Z,33.08
2023-03-08T17:09:35.473Z,35.10
2023-03-08T17:14:37.421Z,29.38
2023-03-08T17:19:40.860Z,31.52
2023-03-08T17:24:42.509Z,35.38
2023-03-08T17:29:43.876Z,37.92
2023-03-08T17:34:45.515Z,39.15
2023-03-08T17:39:46.878Z,43.17
2023-03-08T17:44:48.303Z,40.78
2023-03-08T17:49:49.684Z,36.70
2023-03-08T17:54:51.081Z,36.10
2023-03-08T17:59:53.590Z,31.92
2023-03-08T18:04:55.911Z,37.03
2023-03-08T18:09:57.373Z,32.08
2023-03-08T18:15:01.111Z,34.08
2023-03-08T18:20:05.269Z,43.47
2023-03-08T18:25:06.994Z,35.97
2023-03-08T18:30:09.575Z,43.22
2023-03-08T18:35:13.215Z,37.65
2023-03-08T18:40:15.030Z,35.17
2023-03-08T18:45:18.151Z,34.22
2023-03-08T18:50:19.852Z,32.65
2023-03-08T18:55:21.195Z,37.70
2023-03-08T19:00:22.737Z,38.42
2023-03-08T19:05:24.088Z,41.83
2023-03-08T19:10:25.460Z,43.85
2023-03-08T19:15:27.214Z,42.40
2023-03-08T19:20:29.366Z,44.17
2023-03-08T19:25:35.536Z,47.60
2023-03-08T19:30:37.031Z,47.15
2023-03-08T19:35:38.691Z,56.05
2023-03-08T19:40:43.551Z,54.92
2023-03-08T19:45:48.860Z,44.63
2023-03-08T19:50:50.343Z,57.70
2023-03-08T19:55:53.767Z,49.55
2023-03-08T20:01:02.912Z,49.63
2023-03-08T20:06:05.063Z,42.25
2023-03-08T20:11:06.545Z,51.03
2023-03-08T20:16:08.022Z,57.13
2023-03-08T20:21:09.549Z,46.95
2023-03-08T20:26:11.414Z,46.60
2023-03-08T20:31:13.423Z,42.90
2023-03-08T20:36:15.592Z,48.75
2023-03-08T20:41:19.821Z,45.10
2023-03-08T20:46:23.888Z,41.15
2023-03-08T20:51:25.795Z,44.15
2023-03-08T20:56:27.281Z,41.00
2023-03-08T21:01:31.549Z,43.40
2023-03-08T21:06:33.114Z,51.47
2023-03-08T21:11:34.585Z,47.03
2023-03-08T21:16:36.256Z,39.10
2023-03-08T21:21:40.639Z,39.38
2023-03-08T21:26:42.603Z,45.10
2023-03-08T21:31:48.447Z,50.10
2023-03-08T21:36:49.928Z,39.83
2023-03-08T21:41:52.918Z,46.80
2023-03-08T21:46:55.376Z,40.78
2023-03-08T21:51:58.198Z,43.30
2023-03-08T21:56:59.833Z,46.90
2023-03-08T22:02:01.374Z,52.33
2023-03-08T22:07:02.983Z,47.42
2023-03-08T22:12:04.569Z,49.20
2023-03-08T22:17:07.128Z,55.63
2023-03-08T22:22:10.331Z,45.15
2023-03-08T22:27:13.032Z,44.92
2023-03-08T22:32:15.541Z,49.13
2023-03-08T22:37:16.949Z,41.13
2023-03-08T22:42:18.478Z,52.47
2023-03-08T22:47:20.046Z,49.40
2023-03-08T22:52:21.451Z,46.45
2023-03-08T22:57:22.859Z,55.33
2023-03-08T23:02:24.728Z,48.20
2023-03-08T23:07:26.079Z,53.30
2023-03-08T23:12:27.415Z,41.50
2023-03-08T23:17:28.800Z,40.72
2023-03-08T23:22:30.168Z,54.83
2023-03-08T23:27:31.519Z,43.95
2023-03-08T23:32:33.101Z,52.65
2023-03-08T23:37:34.807Z,60.60
2023-03-08T23:42:36.735Z,53.08
2023-03-08T23:47:38.130Z,50.58
2023-03-08T23:52:39.449Z,60.95
2023-03-08T23:57:40.821Z,55.55
